Aérodrome :
LOGIN :

S'inscrire | Disclaimer

   EN    FR    IT 

 










Légende :    VFR   VFR Marginal   IFR   IFR Intensif   IFR Très Intensif
Visi : 
Plafond : 
>= 8 km
>= 3000ft
5 à 8 km
1000 à 3000 ft
1500m à 5 km
500 à 1000 ft
800 à 1500m
200 à 500 ft
< 800m
< 200 ft
Symboles :   Orages  Brouillard  Fortes neiges  Fortes précipitations  Vent > 20 kt
SIGMETs :   Divers  Orages  Givrage  Turbulence  Onde Orograph.  Cendres Volcan.






- Altitude de l'aérodrome : 466 ft


LHPA - Pápa

DERNIER METAR :
  • 232015Z 15013KT CAVOK 12/05 Q1000 NOSIG RMK BLU

METARs EXPIRÉS :
  • 231945Z 15013G23KT CAVOK 12/05 Q1000 NOSIG RMK BLU
  • 231915Z 15014KT CAVOK 12/05 Q1000 NOSIG RMK BLU
  • 231845Z 15012KT CAVOK 12/05 Q1000 NOSIG RMK BLU
  • 231815Z 15013KT CAVOK 11/06 Q1000 NOSIG RMK BLU
  • 231745Z 15013KT CAVOK 12/06 Q1000 NOSIG RMK BLU
  • 231715Z 15013KT CAVOK 11/06 Q1001 NOSIG RMK BLU
  • 231645Z 15012KT CAVOK 11/06 Q1001 NOSIG RMK BLU
  • 231615Z 16014KT CAVOK 11/06 Q1001 NOSIG RMK BLU
  • 231545Z 15011KT CAVOK 12/06 Q1001 NOSIG RMK BLU

TAF TAF LHPA
Valide du 23 à 18h jusqu'au 24 à 18h UTC


231715Z 2318/2418 17013KT CAVOK
TEMPO 2318/2405 17019G29KT
TEMPO 2321/2405 8000 -RA BKN040 OVC080
BECMG 2405/2407 03007KT
PROB30
TEMPO 2405/2409 8000 BKN015 BKN200
BECMG 2412/2414 20009KT



MET'MAP, la Météo Aéronautique d'un coup d'oeil ! - Copyright ORBIFLY Décembre 2007 - Disclaimer

ORBIFLY MET'MAP TEAM :

Programmation & Développement : Alexandra Zaïnal
Sur une idée originale de : Baudouin d'Aumeries
Soutien technique & logistique : Manuel Goepfert
Assistance : Marc-Olivier Méhu




SOURCES & CREDITS :

   NOAA